Latest Weather Observations for Applethorpe

IDN60801

Issued at 11:35 am EST Saturday 20 September 2014 (issued every 30 minutes, with the page automatically refreshed every 10 minutes)

About weather observations | Map of weather stations | Latest weather observations for NSW | Other Formats
Station Details ID: 041175 Name: APPLETHORPE Lat: -28.62 Lon: 151.95 Height: 871.6 m
Data from the previous 72 hours. | See also: Recent months at Applethorpe
Date/Time
EST
Temp
°C
App
Temp
°C
Dew
Point
Rel
Hum
%
Delta-T
°C
Wind Press
QNH
hPa
Press
MSL
hPa
Rain
since 9 am
mm
Dir
 
Spd
km/h
Gust
km/h
Spd
kts
Gust
kts
20/11:30am 15.2 12.7 3.7 46 5.5 S 6 9 3 5 1021.9 1020.5 0.0
20/11:00am 16.4 14.1 5.7 49 5.4 ENE 7 15 4 8 1022.5 1021.0 0.0
20/10:30am 16.1 13.7 4.2 45 5.8 SE 6 9 3 5 1022.8 1021.4 0.0
20/10:00am 15.2 13.0 5.1 51 5.0 E 6 9 3 5 1023.1 1021.7 0.0
20/09:30am 14.7 12.5 6.4 57 4.2 E 7 13 4 7 1023.5 1022.0 0.0
20/09:00am 13.8 11.7 6.7 62 3.6 E 7 15 4 8 1023.6 1022.1 0.0
20/08:30am 12.6 10.5 6.8 68 2.9 E 7 17 4 9 1023.5 1022.0 0.0
20/08:00am 11.8 9.7 6.6 70 2.6 ESE 7 13 4 7 1023.2 1021.8 0.0
20/07:30am 10.4 8.3 6.8 78 1.8 E 7 13 4 7 1023.1 1021.7 0.0
20/07:00am 8.9 6.9 6.9 87 1.0 E 7 15 4 8 1022.8 1021.4 0.0
20/06:30am 8.1 6.0 6.7 91 0.7 ENE 7 17 4 9 1022.4 1020.9 0.0
20/06:00am 5.8 4.0 3.5 85 1.0 NE 2 7 1 4 1021.8 1020.4 0.0
20/05:30am 6.1 4.5 2.6 78 1.5 CALM 0 0 0 0 1021.3 1019.8 0.0
20/05:00am 6.8 5.5 3.9 82 1.3 CALM 0 0 0 0 1020.7 1019.3 0.0
20/04:30am 8.3 6.9 3.7 73 2.1 CALM 0 4 0 2 1020.6 1019.1 0.0
20/04:00am 8.1 6.0 1.9 65 2.7 NE 2 4 1 2 1020.4 1018.9 0.0
20/03:30am 7.8 5.5 0.4 59 3.1 E 2 4 1 2 1020.3 1018.8 0.0
20/03:00am 7.3 5.3 -0.3 58 3.1 CALM 0 4 0 2 1020.3 1018.8 0.0
20/02:30am 7.6 5.2 -0.2 58 3.2 ENE 2 4 1 2 1020.3 1018.8 0.0
20/02:00am 7.0 4.1 -1.3 55 3.3 ESE 4 7 2 4 1020.6 1019.1 0.0
20/01:30am 6.6 3.8 -0.6 60 2.9 SSW 4 4 2 2 1020.4 1018.9 0.0
20/01:00am 7.6 4.7 -1.4 53 3.6 S 4 6 2 3 1020.5 1019.0 0.0
20/12:30am 8.2 5.3 -0.9 52 3.7 S 4 6 2 3 1020.7 1019.3 0.0
20/12:00am 9.3 7.0 -2.2 44 4.6 S 0 0 0 0 1021.0 1019.5 0.0
 
Date/Time
EST
Temp
°C
App
Temp
°C
Dew
Point
Rel
Hum
%
Delta-T
°C
Wind Press
QNH
hPa
Press
MSL
hPa
Rain
since 9 am
mm
Dir
 
Spd
km/h
Gust
km/h
Spd
kts
Gust
kts
19/11:30pm 10.0 6.5 -3.2 39 5.2 SW 6 9 3 5 1021.0 1019.5 0.0
19/11:00pm 10.0 6.4 -4.0 37 5.4 SW 6 9 3 5 1020.9 1019.4 0.0
19/10:30pm 7.9 5.4 -1.0 53 3.6 SSW 2 6 1 3 1021.2 1019.7 0.0
19/10:00pm 8.9 6.6 -2.2 45 4.4 CALM 0 0 0 0 1021.7 1020.2 0.0
19/09:30pm 9.3 6.2 -2.9 42 4.8 SSW 4 6 2 3 1021.7 1020.2 0.0
19/09:00pm 11.3 7.6 -4.9 32 6.2 SW 6 7 3 4 1021.9 1020.5 0.0
19/08:30pm 11.7 8.0 -4.9 31 6.4 WSW 6 9 3 5 1021.7 1020.2 0.0
19/08:00pm 12.7 8.8 -5.1 28 6.9 SW 7 11 4 6 1021.5 1020.0 0.0
19/07:30pm 13.8 9.7 -6.9 23 7.8 W 7 15 4 8 1021.1 1019.6 0.0
19/07:00pm 13.9 9.9 -7.6 22 8.0 W 6 9 3 5 1020.6 1019.1 0.0
19/06:30pm 14.0 10.0 -7.4 22 8.0 WNW 6 9 3 5 1020.1 1018.6 0.0
19/06:00pm 14.5 9.8 -8.8 19 8.5 W 9 15 5 8 1019.5 1018.0 0.0
19/05:30pm 15.3 11.3 -7.8 19 8.7 W 6 9 3 5 1019.1 1017.6 0.0
19/05:00pm 16.9 12.2 -9.7 15 9.8 W 9 20 5 11 1018.8 1017.3 0.0
19/04:30pm 18.3 13.5 -11.1 12 10.7 W 9 20 5 11 1018.5 1016.9 0.0
19/04:00pm 18.7 13.7 -13.3 10 11.2 WNW 9 20 5 11 1018.3 1016.8 0.0
19/03:30pm 19.1 13.3 -14.2 9 11.5 W 13 22 7 12 1018.1 1016.6 0.0
19/03:00pm 18.6 13.6 -12.9 10 11.1 NW 9 19 5 10 1018.1 1016.6 0.0
19/02:30pm 18.8 13.7 -14.6 9 11.4 NW 9 19 5 10 1018.5 1016.9 0.0
19/02:00pm 17.4 12.3 -16.2 9 10.9 WNW 9 20 5 11 1018.8 1017.3 0.0
19/01:30pm 18.5 13.0 -16.0 8 11.4 WNW 11 26 6 14 1019.2 1017.7 0.0
19/01:00pm 17.9 13.2 -9.8 14 10.3 WNW 9 17 5 9 1019.5 1018.0 0.0
19/12:30pm 18.6 13.5 -8.9 14 10.5 WNW 11 24 6 13 1020.2 1018.7 0.0
19/12:00pm 18.9 13.6 -11.9 11 11.1 NW 11 19 6 10 1020.5 1019.0 0.0
19/11:30am 18.3 13.4 -7.0 17 10.0 NW 11 26 6 14 1020.9 1019.4 0.0
19/11:00am 18.0 12.3 -12.2 12 10.7 W 13 20 7 11 1021.2 1019.7 0.0
19/10:30am 17.7 13.4 -11.1 13 10.4 NNW 6 13 3 7 1021.5 1020.0 0.0
19/10:00am 17.3 13.3 -8.1 17 9.7 ENE 6 9 3 5 1021.8 1020.4 0.0
19/09:30am 16.0 11.9 -6.2 21 8.7 NW 7 11 4 6 1022.0 1020.6 0.0
19/09:00am 14.7 11.6 -2.5 30 7.2 SW 4 6 2 3 1022.5 1021.0 0.0
19/08:30am 13.7 11.1 -1.4 35 6.4 NE 2 6 1 3 1022.6 1021.1 0.0
19/08:00am 11.1 9.9 4.8 65 3.0 CALM 0 2 0 1 1022.7 1021.2 0.0
19/07:30am 7.8 6.5 4.3 78 1.6 CALM 0 0 0 0 1022.5 1021.0 0.0
19/07:00am 4.4 2.9 3.0 91 0.6 CALM 0 0 0 0 1022.2 1020.7 0.0
19/06:30am 0.7 -1.3 -0.4 92 0.4 CALM 0 0 0 0 1021.8 1020.4 0.0
19/06:00am -0.7 - - - - CALM 0 0 0 0 1021.7 1020.2 0.0
19/05:30am -0.6 - - - - CALM 0 0 0 0 1021.4 1019.9 0.0
19/05:00am -0.5 - - - - CALM 0 0 0 0 1021.1 1019.6 0.0
19/04:30am -0.4 - - - - CALM 0 0 0 0 1021.1 1019.6 0.0
19/04:00am -0.2 - - - - CALM 0 0 0 0 1021.0 1019.5 0.0
19/03:30am -0.1 - - - - CALM 0 0 0 0 1020.7 1019.3 0.0
19/03:00am 0.0 - - - - CALM 0 0 0 0 1020.7 1019.3 0.0
19/02:30am 0.1 - - - - CALM 0 0 0 0 1020.6 1019.1 0.0
19/02:00am 0.5 - - - - CALM 0 0 0 0 1020.9 1019.4 0.0
19/01:30am 1.1 -1.4 -1.0 86 0.8 NE 2 4 1 2 1021.2 1019.7 0.0
19/01:00am 0.7 - - - - NE 2 4 1 2 1021.5 1020.0 0.0
19/12:30am 1.4 -1.2 -1.6 80 1.1 NE 2 4 1 2 1021.7 1020.2 0.0
19/12:00am 1.4 -1.1 -1.3 82 1.0 NE 2 2 1 1 1021.8 1020.4 0.0
 
Date/Time
EST
Temp
°C
App
Temp
°C
Dew
Point
Rel
Hum
%
Delta-T
°C
Wind Press
QNH
hPa
Press
MSL
hPa
Rain
since 9 am
mm
Dir
 
Spd
km/h
Gust
km/h
Spd
kts
Gust
kts
18/11:30pm 1.5 -1.0 -1.2 82 1.0 NE 2 6 1 3 1021.9 1020.5 0.0
18/11:00pm 2.2 -0.2 -0.4 83 1.0 ENE 2 4 1 2 1021.8 1020.4 0.0
18/10:30pm 2.7 0.2 -0.7 78 1.3 ENE 2 4 1 2 1021.9 1020.5 0.0
18/10:00pm 2.6 0.6 -0.2 82 1.1 CALM 0 0 0 0 1022.0 1020.6 0.0
18/09:30pm 3.4 1.0 -0.2 77 1.4 NE 2 4 1 2 1021.7 1020.2 0.0
18/09:00pm 4.0 1.8 -1.2 69 2.0 CALM 0 4 0 2 1021.7 1020.2 0.0
18/08:30pm 5.0 2.5 -1.1 65 2.4 NE 2 4 1 2 1021.4 1019.9 0.0
18/08:00pm 6.0 3.9 -0.8 61 2.7 CALM 0 0 0 0 1021.2 1019.7 0.0
18/07:30pm 7.4 5.2 -1.4 53 3.5 CALM 0 0 0 0 1020.9 1019.4 0.0
18/07:00pm 8.9 5.9 -5.5 35 5.3 SW 2 4 1 2 1020.4 1018.9 0.0
18/06:30pm 12.4 8.5 -6.6 26 7.1 W 6 7 3 4 1020.2 1018.7 0.0
18/06:00pm 13.3 9.4 -7.0 24 7.6 W 6 7 3 4 1019.8 1018.3 0.0
18/05:30pm 15.2 11.0 -8.1 19 8.7 SW 7 15 4 8 1019.2 1017.7 0.0
18/05:00pm 16.5 11.4 -9.0 16 9.5 SW 11 19 6 10 1018.9 1017.4 0.0
18/04:30pm 17.4 11.4 -10.7 13 10.2 SW 15 26 8 14 1018.7 1017.1 0.0
18/04:00pm 17.6 11.6 -11.4 13 10.4 SW 15 26 8 14 1018.6 1017.0 0.0
18/03:30pm 18.0 12.0 -10.7 13 10.5 SW 15 26 8 14 1018.3 1016.8 0.0
18/03:00pm 18.2 12.2 -11.4 12 10.7 WSW 15 24 8 13 1018.2 1016.7 0.0
18/02:30pm 18.4 12.2 -9.5 14 10.5 WSW 17 32 9 17 1018.3 1016.8 0.0
18/02:00pm 17.9 12.3 -6.4 18 9.7 WSW 15 24 8 13 1018.6 1017.0 0.0
18/01:30pm 18.1 13.3 -5.9 19 9.7 WSW 11 24 6 13 1018.8 1017.3 0.0
18/01:00pm 16.9 11.0 -5.9 20 9.1 SW 17 26 9 14 1019.1 1017.6 0.0
18/12:30pm 17.1 13.0 -3.3 24 8.6 SW 9 17 5 9 1019.4 1017.9 0.0
18/12:00pm 16.7 11.2 -5.5 21 8.9 WSW 15 24 8 13 1019.8 1018.3 0.0
18/11:30am 16.1 10.3 -5.0 23 8.5 WSW 17 30 9 16 1020.2 1018.7 0.0
18/11:00am 15.9 10.8 -1.7 30 7.6 SW 15 32 8 17 1020.6 1019.1 0.0
18/10:30am 15.4 10.0 -4.3 25 8.0 SW 15 28 8 15 1021.0 1019.5 0.0
18/10:00am 14.5 8.3 -4.5 26 7.6 WSW 19 32 10 17 1021.2 1019.7 0.0
18/09:30am 14.0 7.4 -3.4 30 7.1 SW 22 33 12 18 1021.3 1019.8 0.0
18/09:00am 13.7 7.2 -2.8 32 6.8 SW 22 41 12 22 1021.4 1019.9 0.0
18/08:30am 12.7 7.6 -2.0 36 6.1 SW 15 26 8 14 1021.2 1019.7 0.0
18/08:00am 11.5 7.4 -0.2 44 5.0 SSW 11 20 6 11 1021.1 1019.6 0.0
18/07:30am 9.7 5.9 -1.0 47 4.4 SSW 9 11 5 6 1020.9 1019.4 0.0
18/07:00am 7.5 4.6 -0.9 55 3.4 SSW 4 7 2 4 1020.7 1019.3 0.0
18/06:30am 2.6 0.8 0.9 88 0.7 CALM 0 0 0 0 1020.2 1018.7 0.0
18/06:00am 2.5 0.1 -0.6 80 1.2 WSW 2 4 1 2 1019.9 1018.4 0.0
18/05:30am 3.6 0.6 -2.0 67 2.1 SW 4 4 2 2 1019.5 1018.0 0.0
18/05:00am 3.2 0.3 -1.2 73 1.7 WSW 4 4 2 2 1019.3 1017.8 0.0
18/04:30am 5.3 2.4 -1.4 62 2.6 WSW 4 6 2 3 1018.9 1017.4 0.0
18/04:00am 6.4 3.4 -2.1 54 3.3 WSW 4 6 2 3 1018.5 1016.9 0.0
18/03:30am 7.1 3.7 -1.8 53 3.5 WSW 6 9 3 5 1018.2 1016.7 0.0
18/03:00am 7.1 3.6 -1.1 56 3.3 WSW 7 9 4 5 1018.3 1016.8 0.0
18/02:30am 7.4 4.2 -0.7 56 3.3 W 6 7 3 4 1018.2 1016.7 0.0
18/02:00am 7.8 4.4 -0.5 56 3.4 SW 7 11 4 6 1018.2 1016.7 0.0
18/01:30am 7.1 3.9 -0.5 58 3.1 SW 6 9 3 5 1018.3 1016.8 0.0
18/01:00am 6.5 3.7 -0.1 63 2.7 W 4 6 2 3 1018.6 1017.0 0.0
18/12:30am 4.3 2.6 1.9 84 1.0 CALM 0 4 0 2 1018.5 1016.9 0.0
18/12:00am 5.3 3.7 2.3 81 1.3 CALM 0 0 0 0 1018.5 1016.9 0.0
 
Date/Time
EST
Temp
°C
App
Temp
°C
Dew
Point
Rel
Hum
%
Delta-T
°C
Wind Press
QNH
hPa
Press
MSL
hPa
Rain
since 9 am
mm
Dir
 
Spd
km/h
Gust
km/h
Spd
kts
Gust
kts
17/11:30pm 6.0 4.3 2.0 75 1.7 CALM 0 0 0 0 1018.3 1016.8 0.0
17/11:00pm 6.2 4.4 1.2 70 2.1 CALM 0 0 0 0 1018.3 1016.8 0.0
17/10:30pm 7.9 5.7 0.8 61 3.0 WSW 2 4 1 2 1018.2 1016.7 0.0
17/10:00pm 9.3 6.1 -0.3 51 4.0 WSW 6 7 3 4 1018.2 1016.7 0.0
17/09:30pm 9.3 6.6 0.4 54 3.8 WSW 4 4 2 2 1018.1 1016.6 0.0
17/09:00pm 10.2 7.1 0.1 49 4.3 WSW 6 7 3 4 1018.0 1016.5 0.0
17/08:30pm 11.6 8.1 -1.0 41 5.3 W 7 13 4 7 1017.8 1016.3 0.0
17/08:00pm 11.3 8.2 -0.1 45 4.9 WSW 6 9 3 5 1017.6 1016.0 0.0
17/07:30pm 11.6 8.5 0.0 45 5.0 W 6 9 3 5 1017.3 1015.7 0.0
17/07:00pm 12.6 9.4 -0.4 40 5.6 W 6 9 3 5 1016.8 1015.3 0.0
17/06:30pm 13.4 10.0 -0.4 38 6.0 WSW 7 13 4 7 1016.3 1014.7 0.0
17/06:00pm 14.3 10.5 -0.6 36 6.5 W 9 17 5 9 1016.0 1014.4 0.0
17/05:30pm 15.4 11.2 -1.1 32 7.2 W 11 22 6 12 1015.7 1014.2 0.0
17/05:00pm 16.3 11.3 -1.3 30 7.7 WSW 15 26 8 14 1015.6 1014.0 0.0
17/04:30pm 17.3 11.8 -2.0 26 8.4 WSW 17 30 9 16 1015.2 1013.6 0.0
17/04:00pm 17.7 12.4 -0.9 28 8.3 W 17 32 9 17 1014.9 1013.3 0.0
17/03:30pm 18.1 13.6 -0.1 29 8.3 W 13 28 7 15 1014.6 1013.0 0.0
17/03:00pm 17.9 12.6 -0.5 28 8.3 W 17 26 9 14 1014.5 1012.9 0.0
17/02:30pm 18.1 12.1 -1.6 26 8.7 W 20 32 11 17 1014.8 1013.2 0.0
17/02:00pm 18.4 12.2 -0.3 28 8.5 WSW 22 37 12 20 1014.8 1013.2 0.0
17/01:30pm 18.0 12.2 -0.3 29 8.3 W 20 33 11 18 1015.0 1013.4 0.0
17/01:00pm 18.1 12.3 -1.2 27 8.6 WNW 19 33 10 18 1015.4 1013.8 0.0
17/12:30pm 17.6 12.0 0.0 30 8.0 WSW 19 32 10 17 1015.6 1014.0 0.0
17/12:00pm 17.3 12.2 0.8 33 7.6 WSW 17 26 9 14 1016.0 1014.4 0.0

Other Formats:

Comma delimited format used in spreadsheet applications
http://www.bom.gov.au/fwo/IDN60801/IDN60801.94553.axf

JavaScript Object Notation format (JSON) in row-major order
http://www.bom.gov.au/fwo/IDN60801/IDN60801.94553.json